createdAt,value
2022-12-28T00:01:53.880Z,-23229.84
2022-12-28T00:03:59.137Z,-23229.69
2022-12-28T00:06:01.970Z,-23229.53
2022-12-28T00:08:04.708Z,-23230.03
2022-12-28T00:10:08.033Z,-23229.53
2022-12-28T00:12:12.054Z,-23230.03
2022-12-28T00:14:14.787Z,-23233.38
2022-12-28T00:16:25.174Z,-23233.03
2022-12-28T00:18:27.871Z,-23232.09
2022-12-28T00:20:30.447Z,-23231.78
2022-12-28T00:22:33.097Z,-23230.97
2022-12-28T00:24:35.797Z,-23228.59
2022-12-28T00:26:38.489Z,-23230.50
2022-12-28T00:28:42.565Z,-23229.69
2022-12-28T00:30:45.176Z,-23228.41
2022-12-28T00:32:48.396Z,-23228.25
2022-12-28T00:34:51.111Z,-23229.22
2022-12-28T00:37:08.748Z,-23230.03
2022-12-28T00:39:14.012Z,-23231.13
2022-12-28T00:41:17.954Z,-23230.19
2022-12-28T00:43:20.653Z,-23231.78
2022-12-28T00:45:24.763Z,-23232.09
2022-12-28T00:47:27.461Z,-23231.47
2022-12-28T00:49:30.188Z,-23230.81
2022-12-28T00:51:33.001Z,-23231.13
2022-12-28T00:53:35.980Z,-23230.50
2022-12-28T00:55:39.113Z,-23230.97
2022-12-28T00:57:41.892Z,-23230.81
2022-12-28T00:59:44.574Z,-23231.94
2022-12-28T01:01:48.661Z,-23234.97
2022-12-28T01:03:51.862Z,-23234.00
2022-12-28T01:05:54.620Z,-23235.59
2022-12-28T01:07:57.293Z,-23237.84
2022-12-28T01:09:59.938Z,-23237.50
2022-12-28T01:12:02.686Z,-23237.03
2022-12-28T01:14:05.358Z,-23238.31
2022-12-28T01:16:12.713Z,-23238.16
2022-12-28T01:18:17.159Z,-23237.34
2022-12-28T01:20:20.538Z,-23237.84
2022-12-28T01:22:23.464Z,-23238.94
2022-12-28T01:24:26.121Z,-23237.50
2022-12-28T01:26:29.873Z,-23237.19
2022-12-28T01:28:32.505Z,-23235.28
2022-12-28T01:30:35.216Z,-23234.97
2022-12-28T01:32:42.191Z,-23233.84
2022-12-28T01:34:46.203Z,-23232.72
2022-12-28T01:36:48.854Z,-23233.03
2022-12-28T01:38:53.966Z,-23232.41
2022-12-28T01:40:56.597Z,-23230.50
2022-12-28T01:42:59.266Z,-23230.50
2022-12-28T01:45:16.821Z,-23231.63
2022-12-28T01:47:23.280Z,-23232.41
2022-12-28T01:49:31.401Z,-23233.03
2022-12-28T01:51:43.566Z,-23232.41
2022-12-28T01:53:47.193Z,-23234.97
2022-12-28T01:55:50.105Z,-23234.00
2022-12-28T01:57:56.685Z,-23233.22
2022-12-28T02:00:03.912Z,-23233.53
2022-12-28T02:02:06.916Z,-23236.25
2022-12-28T02:04:09.886Z,-23237.34
2022-12-28T02:06:13.978Z,-23237.03
2022-12-28T02:08:23.143Z,-23237.19
2022-12-28T02:10:43.357Z,-23238.78
2022-12-28T02:12:48.151Z,-23238.31
2022-12-28T02:14:50.884Z,-23237.69
2022-12-28T02:16:54.590Z,-23238.47
2022-12-28T02:18:57.385Z,-23237.50
2022-12-28T02:21:32.929Z,-23239.44
2022-12-28T02:23:55.582Z,-23240.38
2022-12-28T02:26:17.142Z,-23241.19
2022-12-28T02:28:55.943Z,-23242.63
2022-12-28T02:31:04.068Z,-23242.47
2022-12-28T02:33:15.459Z,-23242.13
2022-12-28T02:35:23.300Z,-23242.63
2022-12-28T02:37:32.957Z,-23244.53
2022-12-28T02:39:43.348Z,-23246.94
2022-12-28T02:41:47.033Z,-23247.41
2022-12-28T02:43:51.559Z,-23248.53
2022-12-28T02:46:11.904Z,-23249.00
2022-12-28T02:48:46.486Z,-23250.13
2022-12-28T02:50:58.503Z,-23252.50
2022-12-28T02:53:15.567Z,-23252.19
2022-12-28T02:55:48.181Z,-23251.06
2022-12-28T02:58:06.895Z,-23250.59
2022-12-28T03:00:13.588Z,-23251.06
2022-12-28T03:02:49.002Z,-23252.66
2022-12-28T03:05:07.758Z,-23251.88
2022-12-28T03:07:34.236Z,-23253.31
2022-12-28T03:09:42.680Z,-23256.00
2022-12-28T03:11:51.884Z,-23256.34
2022-12-28T03:13:59.935Z,-23258.09
2022-12-28T03:16:07.570Z,-23258.56
2022-12-28T03:18:33.493Z,-23260.66
2022-12-28T03:20:53.676Z,-23263.84
2022-12-28T03:23:18.530Z,-23264.00
2022-12-28T03:25:42.858Z,-23267.50
2022-12-28T03:28:05.225Z,-23267.50
2022-12-28T03:30:31.041Z,-23262.72
2022-12-28T03:32:35.559Z,-23262.22
2022-12-28T03:34:38.763Z,-23263.34
2022-12-28T03:36:48.952Z,-23262.72
2022-12-28T03:38:59.186Z,-23266.53
2022-12-28T03:41:07.500Z,-23267.66
2022-12-28T03:43:33.432Z,-23269.56
2022-12-28T03:45:45.360Z,-23269.72
2022-12-28T03:47:53.245Z,-23271.16
2022-12-28T03:49:56.430Z,-23274.03
2022-12-28T03:52:02.260Z,-23270.38
2022-12-28T03:54:05.132Z,-23268.63
2022-12-28T03:56:10.017Z,-23268.78
2022-12-28T03:58:12.659Z,-23271.31
2022-12-28T04:00:16.109Z,-23273.56
2022-12-28T04:02:18.878Z,-23274.19
2022-12-28T04:04:23.035Z,-23273.56
2022-12-28T04:06:26.700Z,-23274.66
2022-12-28T04:08:29.375Z,-23277.69
2022-12-28T04:10:32.012Z,-23279.78
2022-12-28T04:12:34.773Z,-23280.56
2022-12-28T04:14:37.406Z,-23280.88
2022-12-28T04:16:40.096Z,-23282.81
2022-12-28T04:18:43.082Z,-23281.19
2022-12-28T04:20:47.091Z,-23280.56
2022-12-28T04:22:49.692Z,-23277.84
2022-12-28T04:24:52.450Z,-23277.53
2022-12-28T04:26:55.117Z,-23276.75
2022-12-28T04:29:01.874Z,-23276.75
2022-12-28T04:31:06.928Z,-23279.59
2022-12-28T04:33:09.534Z,-23278.34
2022-12-28T04:35:12.221Z,-23280.56
2022-12-28T04:37:16.248Z,-23279.94
2022-12-28T04:39:18.957Z,-23281.19
2022-12-28T04:41:21.596Z,-23278.50
2022-12-28T04:43:24.175Z,-23276.75
2022-12-28T04:45:26.758Z,-23277.53
2022-12-28T04:47:29.861Z,-23276.44
2022-12-28T04:49:32.503Z,-23275.78
2022-12-28T04:51:35.308Z,-23275.31
2022-12-28T04:53:40.737Z,-23275.31
2022-12-28T04:55:43.360Z,-23275.31
2022-12-28T04:57:46.430Z,-23277.22
2022-12-28T04:59:49.494Z,-23275.78
2022-12-28T05:01:52.146Z,-23273.72
2022-12-28T05:03:58.870Z,-23274.66
2022-12-28T05:06:02.689Z,-23273.22
2022-12-28T05:08:05.599Z,-23273.06
2022-12-28T05:10:10.112Z,-23274.81
2022-12-28T05:12:12.670Z,-23278.34
2022-12-28T05:14:15.422Z,-23282.63
2022-12-28T05:16:19.896Z,-23283.28
2022-12-28T05:18:22.577Z,-23285.66
2022-12-28T05:20:25.196Z,-23286.94
2022-12-28T05:22:27.838Z,-23288.06
2022-12-28T05:24:30.481Z,-23288.38
2022-12-28T05:26:35.400Z,-23289.00
2022-12-28T05:28:37.987Z,-23289.97
2022-12-28T05:30:40.583Z,-23290.13
2022-12-28T05:32:43.198Z,-23290.28
2022-12-28T05:34:45.845Z,-23292.84
2022-12-28T05:36:48.435Z,-23293.78
2022-12-28T05:38:51.650Z,-23293.94
2022-12-28T05:40:54.237Z,-23293.63
2022-12-28T05:42:58.207Z,-23293.31
2022-12-28T05:45:00.837Z,-23293.78
2022-12-28T05:47:03.556Z,-23295.88
2022-12-28T05:49:09.160Z,-23294.91
2022-12-28T05:51:14.239Z,-23296.50
2022-12-28T05:53:16.816Z,-23295.69
2022-12-28T05:55:19.447Z,-23295.22
2022-12-28T05:57:22.020Z,-23295.88
2022-12-28T05:59:26.051Z,-23296.81
2022-12-28T06:01:31.517Z,-23297.28
2022-12-28T06:03:34.287Z,-23298.41
2022-12-28T06:05:36.934Z,-23299.03
2022-12-28T06:07:39.568Z,-23299.69
2022-12-28T06:09:42.204Z,-23299.53
2022-12-28T06:11:45.869Z,-23301.59
2022-12-28T06:13:49.208Z,-23306.06
2022-12-28T06:15:53.165Z,-23306.38
2022-12-28T06:17:55.699Z,-23309.41
2022-12-28T06:19:58.313Z,-23309.88
2022-12-28T06:22:00.877Z,-23311.47
2022-12-28T06:24:05.202Z,-23312.44
2022-12-28T06:26:09.249Z,-23312.75
2022-12-28T06:28:11.986Z,-23313.53
2022-12-28T06:30:15.361Z,-23313.69
2022-12-28T06:32:19.392Z,-23314.97
2022-12-28T06:34:22.175Z,-23315.28
2022-12-28T06:36:26.907Z,-23313.06
2022-12-28T06:38:32.538Z,-23311.31
2022-12-28T06:41:11.299Z,-23310.84
2022-12-28T06:42:57.952Z,-23310.84
2022-12-28T06:45:00.510Z,-23309.88
2022-12-28T06:47:03.107Z,-23309.09
2022-12-28T06:49:07.972Z,-23312.25
2022-12-28T06:51:15.376Z,-23311.16
2022-12-28T06:53:18.020Z,-23312.09
2022-12-28T06:55:20.672Z,-23311.63
2022-12-28T06:57:23.264Z,-23311.16
2022-12-28T06:59:25.886Z,-23310.19
2022-12-28T07:01:31.826Z,-23308.91
2022-12-28T07:03:34.499Z,-23306.38
2022-12-28T07:05:38.526Z,-23305.91
2022-12-28T07:07:41.126Z,-23306.06
2022-12-28T07:09:43.712Z,-23306.53
2022-12-28T07:11:46.663Z,-23305.59
2022-12-28T07:13:49.754Z,-23305.25
2022-12-28T07:15:54.319Z,-23304.31
2022-12-28T07:17:56.991Z,-23305.59
2022-12-28T07:19:59.629Z,-23303.19
2022-12-28T07:22:03.680Z,-23303.34
2022-12-28T07:24:07.492Z,-23305.91
2022-12-28T07:26:12.390Z,-23309.41
2022-12-28T07:28:15.047Z,-23309.88
2022-12-28T07:30:17.721Z,-23308.44
2022-12-28T07:32:20.322Z,-23309.09
2022-12-28T07:34:23.447Z,-23309.25
2022-12-28T07:36:30.280Z,-23300.00
2022-12-28T07:38:34.174Z,-23293.31
2022-12-28T07:40:36.840Z,-23295.22
2022-12-28T07:42:39.522Z,-23296.81
2022-12-28T07:44:48.682Z,-23296.19
2022-12-28T07:46:51.592Z,-23293.63
2022-12-28T07:48:56.911Z,-23294.44
2022-12-28T07:51:06.131Z,-23293.94
2022-12-28T07:53:08.768Z,-23290.13
2022-12-28T07:55:13.583Z,-23290.44
2022-12-28T07:57:16.182Z,-23293.00
2022-12-28T07:59:18.771Z,-23292.69
2022-12-28T08:01:23.435Z,-23292.03
2022-12-28T08:03:26.175Z,-23292.53
2022-12-28T08:05:28.816Z,-23291.72
2022-12-28T08:07:31.622Z,-23293.63
2022-12-28T08:09:36.373Z,-23294.28
2022-12-28T08:11:41.891Z,-23296.50
2022-12-28T08:13:46.808Z,-23297.78
2022-12-28T08:15:55.213Z,-23300.31
2022-12-28T08:17:58.261Z,-23310.69
2022-12-28T08:20:00.847Z,-23303.19
2022-12-28T08:22:03.570Z,-23306.38
2022-12-28T08:24:07.671Z,-23306.84
2022-12-28T08:26:11.659Z,-23315.94
2022-12-28T08:28:15.791Z,-23313.06
2022-12-28T08:30:18.742Z,-23313.84
2022-12-28T08:32:21.525Z,-23314.66
2022-12-28T08:34:27.059Z,-23325.31
2022-12-28T08:36:30.578Z,-23329.78
2022-12-28T08:38:34.446Z,-23319.75
2022-12-28T08:40:37.091Z,-23318.63
2022-12-28T08:42:39.701Z,-23319.09
2022-12-28T08:44:43.701Z,-23322.94
2022-12-28T08:46:46.446Z,-23316.41
2022-12-28T08:48:50.325Z,-23314.03
2022-12-28T08:50:52.971Z,-23316.09
2022-12-28T08:52:55.616Z,-23314.03
2022-12-28T08:54:58.306Z,-23319.91
2022-12-28T08:57:00.951Z,-23322.31
2022-12-28T08:59:03.704Z,-23326.44
2022-12-28T09:01:09.468Z,-23324.69
2022-12-28T09:03:12.435Z,-23330.25
2022-12-28T09:05:15.365Z,-23337.75
2022-12-28T09:07:18.017Z,-23345.84
2022-12-28T09:09:21.903Z,-23347.91
2022-12-28T09:11:24.873Z,-23348.56
2022-12-28T09:13:28.144Z,-23350.00
2022-12-28T09:15:30.742Z,-23358.91
2022-12-28T09:17:34.695Z,-23378.47
2022-12-28T09:19:37.309Z,-23376.22
2022-12-28T09:21:40.191Z,-23363.84
2022-12-28T09:23:43.987Z,-23369.56
2022-12-28T09:25:46.878Z,-23380.22
2022-12-28T09:27:53.386Z,-23376.06
2022-12-28T09:29:58.623Z,-23382.13
2022-12-28T09:32:01.498Z,-23391.50
2022-12-28T09:34:34.948Z,-23389.75
2022-12-28T09:36:29.909Z,-23412.47
2022-12-28T09:38:32.710Z,-23413.88
2022-12-28T09:40:35.892Z,-23402.13
2022-12-28T09:42:43.434Z,-23401.34
2022-12-28T09:45:02.555Z,-23397.22
2022-12-28T09:47:17.469Z,-23407.22
2022-12-28T09:49:27.247Z,-23418.66
2022-12-28T09:51:34.716Z,-23416.44
2022-12-28T09:53:37.845Z,-23416.09
2022-12-28T09:55:44.696Z,-23416.28
2022-12-28T09:57:50.544Z,-23399.28
2022-12-28T09:59:54.132Z,-23400.53
2022-12-28T10:02:01.713Z,-23384.34
2022-12-28T10:04:05.038Z,-23390.53
2022-12-28T10:06:14.185Z,-23391.97
2022-12-28T10:08:21.561Z,-23405.63
2022-12-28T10:10:25.330Z,-23406.41
2022-12-28T10:12:31.160Z,-23390.69
2022-12-28T10:14:36.747Z,-23397.06
2022-12-28T10:16:45.475Z,-23394.66
2022-12-28T10:18:51.780Z,-23395.47
2022-12-28T10:20:55.913Z,-23402.44
2022-12-28T10:23:02.170Z,-23405.31
2022-12-28T10:25:14.732Z,-23391.66
2022-12-28T10:27:23.262Z,-23400.88
2022-12-28T10:29:27.238Z,-23398.47
2022-12-28T10:31:34.527Z,-23403.72
2022-12-28T10:33:40.482Z,-23403.09
2022-12-28T10:35:49.886Z,-23407.53
2022-12-28T10:37:55.733Z,-23406.75
2022-12-28T10:40:03.604Z,-23412.94
2022-12-28T10:42:18.022Z,-23423.88
2022-12-28T10:44:41.708Z,-23426.28
2022-12-28T10:46:53.670Z,-23435.16
2022-12-28T10:48:59.820Z,-23441.84
2022-12-28T10:51:13.222Z,-23438.34
2022-12-28T10:53:28.640Z,-23432.63
2022-12-28T10:55:34.838Z,-23431.34
2022-12-28T10:57:38.126Z,-23433.28
2022-12-28T10:59:40.957Z,-23432.31
2022-12-28T11:01:43.996Z,-23435.34
2022-12-28T11:03:58.696Z,-23436.75
2022-12-28T11:06:12.848Z,-23437.53
2022-12-28T11:08:15.439Z,-23440.09
2022-12-28T11:10:25.376Z,-23445.66
2022-12-28T11:12:31.833Z,-23443.09
2022-12-28T11:14:37.702Z,-23432.78
2022-12-28T11:16:42.028Z,-23435.16
2022-12-28T11:18:44.730Z,-23435.47
2022-12-28T11:20:49.386Z,-23435.16
2022-12-28T11:22:53.135Z,-23434.69
2022-12-28T11:24:57.173Z,-23436.59
2022-12-28T11:26:59.962Z,-23437.06
2022-12-28T11:29:04.050Z,-23436.44
2022-12-28T11:31:08.212Z,-23437.41
2022-12-28T11:33:26.272Z,-23440.88
2022-12-28T11:35:31.824Z,-23439.59
2022-12-28T11:37:34.455Z,-23445.66
2022-12-28T11:39:45.731Z,-23448.19
2022-12-28T11:42:19.024Z,-23444.06
2022-12-28T11:44:24.557Z,-23454.53
2022-12-28T11:46:41.567Z,-23452.94
2022-12-28T11:48:51.312Z,-23455.16
2022-12-28T11:50:54.426Z,-23457.06
2022-12-28T11:52:57.228Z,-23452.63
2022-12-28T11:55:01.219Z,-23451.03
2022-12-28T11:57:04.054Z,-23445.00
2022-12-28T11:59:24.811Z,-23443.75
2022-12-28T12:01:47.637Z,-23443.75
2022-12-28T12:04:17.028Z,-23450.72
2022-12-28T12:06:19.650Z,-23454.22
2022-12-28T12:08:42.897Z,-23464.53
2022-12-28T12:10:46.202Z,-23468.50
2022-12-28T12:12:51.765Z,-23462.31
2022-12-28T12:14:58.863Z,-23457.06
2022-12-28T12:17:04.730Z,-23461.66
2022-12-28T12:19:09.319Z,-23455.78
2022-12-28T12:21:24.943Z,-23453.09
2022-12-28T12:23:33.442Z,-23453.56
2022-12-28T12:25:40.881Z,-23453.56
2022-12-28T12:27:47.867Z,-23452.63
2022-12-28T12:29:58.246Z,-23458.03
2022-12-28T12:32:05.233Z,-23457.69
2022-12-28T12:34:19.484Z,-23456.75
2022-12-28T12:36:41.316Z,-23459.44
2022-12-28T12:39:04.204Z,-23459.44
2022-12-28T12:41:25.562Z,-23463.09
2022-12-28T12:43:33.414Z,-23460.41
2022-12-28T12:45:48.376Z,-23462.31
2022-12-28T12:48:13.613Z,-23457.06
2022-12-28T12:50:37.063Z,-23453.91
2022-12-28T12:52:43.501Z,-23455.78
2022-12-28T12:55:01.348Z,-23452.00
2022-12-28T12:57:11.871Z,-23452.47
2022-12-28T12:59:37.862Z,-23454.84
2022-12-28T13:01:50.764Z,-23450.72
2022-12-28T13:03:56.659Z,-23449.59
2022-12-28T13:05:59.817Z,-23452.63
2022-12-28T13:08:02.811Z,-23448.19
2022-12-28T13:10:06.085Z,-23450.09
2022-12-28T13:12:15.197Z,-23447.22
2022-12-28T13:14:20.820Z,-23445.66
2022-12-28T13:16:26.097Z,-23450.09
2022-12-28T13:18:45.598Z,-23445.97
2022-12-28T13:20:57.708Z,-23445.66
2022-12-28T13:23:00.442Z,-23442.63
2022-12-28T13:25:03.043Z,-23441.53
2022-12-28T13:27:20.054Z,-23442.16
2022-12-28T13:29:24.510Z,-23440.25
2022-12-28T13:31:34.018Z,-23439.13
2022-12-28T13:33:36.739Z,-23439.94
2022-12-28T13:35:39.418Z,-23442.16
2022-12-28T13:37:43.477Z,-23441.53
2022-12-28T13:39:47.843Z,-23439.47
2022-12-28T13:41:52.804Z,-23439.13
2022-12-28T13:44:22.408Z,-23439.28
2022-12-28T13:46:26.121Z,-23439.78
2022-12-28T13:48:32.097Z,-23439.94
2022-12-28T13:50:37.919Z,-23438.03
2022-12-28T13:52:45.971Z,-23438.03
2022-12-28T13:54:54.333Z,-23439.94
2022-12-28T13:57:20.549Z,-23438.81
2022-12-28T13:59:22.115Z,-23438.19
2022-12-28T14:01:29.156Z,-23440.56
2022-12-28T14:03:38.974Z,-23438.34
2022-12-28T14:05:45.191Z,-23439.28
2022-12-28T14:07:51.671Z,-23439.94
2022-12-28T14:09:55.391Z,-23440.25
2022-12-28T14:11:58.703Z,-23438.50
2022-12-28T14:14:02.210Z,-23439.13
2022-12-28T14:16:06.298Z,-23438.97
2022-12-28T14:18:10.909Z,-23438.97
2022-12-28T14:20:13.656Z,-23438.66
2022-12-28T14:22:27.489Z,-23439.94
2022-12-28T14:24:31.520Z,-23438.97
2022-12-28T14:26:34.628Z,-23438.97
2022-12-28T14:28:41.969Z,-23438.34
2022-12-28T14:30:44.696Z,-23439.94
2022-12-28T14:32:47.379Z,-23438.66
2022-12-28T14:37:26.251Z,-23438.50
2022-12-28T14:39:34.633Z,-23437.41
2022-12-28T14:41:42.108Z,-23438.66
2022-12-28T14:43:45.343Z,-23437.22
2022-12-28T14:46:13.117Z,-23436.75
2022-12-28T14:48:26.835Z,-23436.13
2022-12-28T14:50:30.402Z,-23436.13
2022-12-28T14:52:38.354Z,-23436.44
2022-12-28T14:54:47.172Z,-23436.13
2022-12-28T14:56:54.839Z,-23435.34
2022-12-28T14:59:00.734Z,-23434.53
2022-12-28T15:00:25.039Z,-23439.78
2022-12-28T15:01:06.148Z,-23433.28
2022-12-28T15:03:18.988Z,-23432.94
2022-12-28T15:05:40.205Z,-23433.09
2022-12-28T15:07:42.831Z,-23430.56
2022-12-28T15:09:46.965Z,-23432.00
2022-12-28T15:11:49.621Z,-23431.34
2022-12-28T15:13:52.890Z,-23432.16
2022-12-28T15:15:57.690Z,-23430.41
2022-12-28T15:18:00.452Z,-23429.13
2022-12-28T15:20:03.256Z,-23428.81
2022-12-28T15:22:06.343Z,-23427.84
2022-12-28T15:24:09.745Z,-23428.19
2022-12-28T15:26:14.846Z,-23428.50
2022-12-28T15:28:17.870Z,-23424.84
2022-12-28T15:30:28.801Z,-23426.28
2022-12-28T15:32:31.828Z,-23426.44
2022-12-28T15:34:34.475Z,-23424.53
2022-12-28T15:36:37.644Z,-23422.16
2022-12-28T15:38:40.277Z,-23420.88
2022-12-28T15:40:43.948Z,-23418.66
2022-12-28T15:42:47.980Z,-23417.22
2022-12-28T15:44:52.882Z,-23415.31
2022-12-28T15:46:55.506Z,-23415.00
2022-12-28T15:48:58.853Z,-23415.47
2022-12-28T15:51:01.499Z,-23413.72
2022-12-28T15:53:04.116Z,-23411.50
2022-12-28T15:55:07.530Z,-23410.06
2022-12-28T15:57:12.394Z,-23407.84
2022-12-28T15:59:16.303Z,-23406.28
2022-12-28T16:01:19.124Z,-23405.78
2022-12-28T16:03:22.118Z,-23405.31
2022-12-28T16:05:24.893Z,-23405.78
2022-12-28T16:07:27.595Z,-23402.13
2022-12-28T16:09:30.316Z,-23402.13
2022-12-28T16:11:34.103Z,-23400.53
2022-12-28T16:13:36.768Z,-23401.81
2022-12-28T16:15:40.736Z,-23402.28
2022-12-28T16:17:51.338Z,-23402.94
2022-12-28T16:19:55.788Z,-23403.41
2022-12-28T16:21:58.489Z,-23403.41
2022-12-28T16:24:01.831Z,-23405.47
2022-12-28T16:26:05.329Z,-23405.31
2022-12-28T16:28:08.163Z,-23405.47
2022-12-28T16:30:11.769Z,-23406.91
2022-12-28T16:32:15.817Z,-23408.16
2022-12-28T16:34:19.156Z,-23412.13
2022-12-28T16:36:22.130Z,-23412.94
2022-12-28T16:38:28.252Z,-23410.41
2022-12-28T16:40:30.848Z,-23411.34
2022-12-28T16:42:33.567Z,-23409.44
2022-12-28T16:44:37.185Z,-23410.41
2022-12-28T16:46:39.884Z,-23407.53
2022-12-28T16:48:44.055Z,-23406.75
2022-12-28T16:50:57.612Z,-23407.53
2022-12-28T16:53:00.978Z,-23407.84
2022-12-28T16:55:06.593Z,-23408.00
2022-12-28T16:57:09.563Z,-23405.94
2022-12-28T16:59:16.243Z,-23404.69
2022-12-28T17:01:18.972Z,-23402.78
2022-12-28T17:03:21.747Z,-23401.34
2022-12-28T17:05:25.861Z,-23400.72
2022-12-28T17:07:28.554Z,-23398.97
2022-12-28T17:09:31.270Z,-23397.84
2022-12-28T17:11:34.032Z,-23397.22
2022-12-28T17:13:36.689Z,-23395.78
2022-12-28T17:15:39.903Z,-23396.09
2022-12-28T17:17:42.556Z,-23395.47
2022-12-28T17:19:45.349Z,-23396.41
2022-12-28T17:21:49.899Z,-23395.94
2022-12-28T17:23:52.573Z,-23396.09
2022-12-28T17:25:55.755Z,-23396.56
2022-12-28T17:27:58.464Z,-23396.25
2022-12-28T17:30:02.670Z,-23395.16
2022-12-28T17:32:06.135Z,-23394.19
2022-12-28T17:34:11.678Z,-23394.81
2022-12-28T17:36:14.353Z,-23396.41
2022-12-28T17:38:18.893Z,-23395.16
2022-12-28T17:40:21.644Z,-23392.28
2022-12-28T17:42:24.473Z,-23392.91
2022-12-28T17:44:27.084Z,-23391.66
2022-12-28T17:46:30.979Z,-23390.84
2022-12-28T17:48:33.742Z,-23390.38
2022-12-28T17:50:36.314Z,-23390.06
2022-12-28T17:52:40.085Z,-23389.09
2022-12-28T17:54:44.090Z,-23389.25
2022-12-28T17:56:46.768Z,-23386.88
2022-12-28T17:58:49.541Z,-23385.59
2022-12-28T18:00:54.902Z,-23388.78
2022-12-28T18:02:57.799Z,-23386.41
2022-12-28T18:05:00.543Z,-23384.66
2022-12-28T18:07:03.199Z,-23384.50
2022-12-28T18:09:05.855Z,-23384.34
2022-12-28T18:11:11.266Z,-23384.34
2022-12-28T18:13:14.828Z,-23384.03
2022-12-28T18:15:17.752Z,-23385.59
2022-12-28T18:17:23.333Z,-23383.88
2022-12-28T18:19:26.092Z,-23384.50
2022-12-28T18:21:29.862Z,-23384.50
2022-12-28T18:23:32.923Z,-23383.69
2022-12-28T18:25:35.702Z,-23382.13
2022-12-28T18:27:39.776Z,-23381.47
2022-12-28T18:29:42.741Z,-23381.16
2022-12-28T18:31:45.482Z,-23380.06
2022-12-28T18:33:48.363Z,-23381.16
2022-12-28T18:35:51.040Z,-23379.25
2022-12-28T18:37:53.677Z,-23379.56
2022-12-28T18:39:56.317Z,-23379.25
2022-12-28T18:41:58.902Z,-23379.25
2022-12-28T18:44:03.236Z,-23377.66
2022-12-28T18:46:08.813Z,-23380.69
2022-12-28T18:48:11.585Z,-23378.63
2022-12-28T18:50:15.664Z,-23377.34
2022-12-28T18:52:20.591Z,-23378.94
2022-12-28T18:54:23.497Z,-23381.00
2022-12-28T18:56:26.168Z,-23379.25
2022-12-28T18:58:30.619Z,-23379.56
2022-12-28T19:00:34.882Z,-23379.88
2022-12-28T19:02:37.870Z,-23378.94
2022-12-28T19:04:40.761Z,-23375.59
2022-12-28T19:06:44.593Z,-23374.31
2022-12-28T19:08:47.288Z,-23374.97
2022-12-28T19:10:50.268Z,-23374.50
2022-12-28T19:12:52.916Z,-23375.91
2022-12-28T19:14:55.567Z,-23375.44
2022-12-28T19:16:59.663Z,-23375.44
2022-12-28T19:19:02.390Z,-23374.50
2022-12-28T19:21:19.027Z,-23374.16
2022-12-28T19:23:21.957Z,-23375.44
2022-12-28T19:25:24.598Z,-23375.75
2022-12-28T19:27:27.442Z,-23378.78
2022-12-28T19:29:31.314Z,-23376.41
2022-12-28T19:31:34.813Z,-23380.53
2022-12-28T19:33:38.826Z,-23379.09
2022-12-28T19:35:42.001Z,-23381.16
2022-12-28T19:37:44.675Z,-23383.06
2022-12-28T19:39:47.353Z,-23381.47
2022-12-28T19:41:50.617Z,-23380.69
2022-12-28T19:43:53.522Z,-23381.16
2022-12-28T19:46:02.812Z,-23377.34
2022-12-28T19:48:06.189Z,-23377.97
2022-12-28T19:50:10.289Z,-23377.34
2022-12-28T19:52:12.991Z,-23375.75
2022-12-28T19:54:16.824Z,-23375.91
2022-12-28T19:56:19.470Z,-23374.50
2022-12-28T19:58:23.994Z,-23375.59
2022-12-28T20:00:26.598Z,-23375.75
2022-12-28T20:02:29.395Z,-23376.88
2022-12-28T20:04:32.399Z,-23379.41
2022-12-28T20:06:38.752Z,-23380.22
2022-12-28T20:08:45.749Z,-23379.56
2022-12-28T20:10:55.919Z,-23381.31
2022-12-28T20:12:58.577Z,-23380.84
2022-12-28T20:15:01.204Z,-23378.13
2022-12-28T20:17:03.968Z,-23386.09
2022-12-28T20:19:08.567Z,-23382.13
2022-12-28T20:21:20.412Z,-23384.34
2022-12-28T20:23:25.225Z,-23379.09
2022-12-28T20:25:27.843Z,-23376.88
2022-12-28T20:27:31.380Z,-23380.22
2022-12-28T20:29:34.056Z,-23382.13
2022-12-28T20:31:36.724Z,-23383.69
2022-12-28T20:33:39.824Z,-23381.47
2022-12-28T20:35:42.956Z,-23378.94
2022-12-28T20:37:45.594Z,-23377.34
2022-12-28T20:39:49.608Z,-23375.91
2022-12-28T20:42:10.061Z,-23374.50
2022-12-28T20:44:14.885Z,-23376.56
2022-12-28T20:46:17.557Z,-23375.75
2022-12-28T20:48:20.316Z,-23373.22
2022-12-28T20:50:22.898Z,-23372.56
2022-12-28T20:52:25.503Z,-23373.22
2022-12-28T20:54:28.267Z,-23376.22
2022-12-28T20:56:32.346Z,-23377.34
2022-12-28T20:58:35.640Z,-23377.50
2022-12-28T21:00:39.934Z,-23376.06
2022-12-28T21:02:42.811Z,-23378.13
2022-12-28T21:04:45.667Z,-23375.13
2022-12-28T21:06:48.339Z,-23375.75
2022-12-28T21:08:51.005Z,-23380.38
2022-12-28T21:10:53.657Z,-23378.78
2022-12-28T21:12:57.669Z,-23382.28
2022-12-28T21:15:00.378Z,-23382.91
2022-12-28T21:17:03.127Z,-23381.47
2022-12-28T21:19:05.832Z,-23382.13
2022-12-28T21:21:15.519Z,-23384.34
2022-12-28T21:23:18.673Z,-23387.19
2022-12-28T21:25:21.392Z,-23390.53
2022-12-28T21:27:24.065Z,-23387.34
2022-12-28T21:29:28.167Z,-23391.00
2022-12-28T21:31:30.832Z,-23390.06
2022-12-28T21:33:34.512Z,-23390.06
2022-12-28T21:35:37.187Z,-23389.09
2022-12-28T21:37:39.964Z,-23391.00
2022-12-28T21:39:42.577Z,-23391.34
2022-12-28T21:41:51.322Z,-23391.34
2022-12-28T21:43:54.074Z,-23393.88
2022-12-28T21:46:02.222Z,-23393.56
2022-12-28T21:48:05.891Z,-23396.41
2022-12-28T21:50:10.503Z,-23395.16
2022-12-28T21:52:13.291Z,-23395.16
2022-12-28T21:54:17.695Z,-23397.53
2022-12-28T21:56:20.461Z,-23400.38
2022-12-28T21:58:23.122Z,-23396.72
2022-12-28T22:00:43.377Z,-23397.69
2022-12-28T22:03:04.908Z,-23396.88
2022-12-28T22:05:25.825Z,-23400.22
2022-12-28T22:07:28.843Z,-23399.59
2022-12-28T22:09:49.574Z,-23403.09
2022-12-28T22:12:10.034Z,-23401.19
2022-12-28T22:14:12.717Z,-23402.13
2022-12-28T22:16:15.416Z,-23399.28
2022-12-28T22:20:43.732Z,-23395.31
2022-12-28T22:22:46.361Z,-23397.84
2022-12-28T22:24:48.964Z,-23397.38
2022-12-28T22:26:51.630Z,-23398.97
2022-12-28T22:28:54.274Z,-23398.00
2022-12-28T22:30:56.985Z,-23396.09
2022-12-28T22:32:59.612Z,-23393.88
2022-12-28T22:35:03.709Z,-23394.19
2022-12-28T22:37:06.288Z,-23397.69
2022-12-28T22:39:09.014Z,-23395.47
2022-12-28T22:41:11.867Z,-23393.88
2022-12-28T22:43:14.576Z,-23398.78
2022-12-28T22:45:19.492Z,-23391.66
2022-12-28T22:47:22.316Z,-23393.88
2022-12-28T22:49:24.921Z,-23397.38
2022-12-28T22:51:28.927Z,-23398.16
2022-12-28T22:53:31.591Z,-23399.91
2022-12-28T22:55:34.207Z,-23401.03
2022-12-28T22:57:36.906Z,-23404.34
2022-12-28T22:59:39.534Z,-23406.91
2022-12-28T23:01:43.486Z,-23405.63
2022-12-28T23:03:48.521Z,-23404.84
2022-12-28T23:05:51.904Z,-23402.94
2022-12-28T23:07:56.009Z,-23404.03
2022-12-28T23:09:58.645Z,-23408.81
2022-12-28T23:12:01.313Z,-23411.50
2022-12-28T23:14:25.857Z,-23412.31
2022-12-28T23:16:28.453Z,-23413.88
2022-12-28T23:18:48.961Z,-23414.03
2022-12-28T23:21:09.515Z,-23410.72
2022-12-28T23:23:31.187Z,-23411.19
2022-12-28T23:25:51.657Z,-23413.56
2022-12-28T23:27:54.417Z,-23414.38
2022-12-28T23:29:57.098Z,-23415.47
2022-12-28T23:31:59.900Z,-23418.03
2022-12-28T23:34:03.127Z,-23416.75
2022-12-28T23:36:06.421Z,-23418.50
2022-12-28T23:38:09.018Z,-23418.03
2022-12-28T23:40:15.161Z,-23415.47
2022-12-28T23:42:17.823Z,-23417.69
2022-12-28T23:44:22.313Z,-23420.56
2022-12-28T23:46:25.072Z,-23422.00
2022-12-28T23:48:27.732Z,-23423.25
2022-12-28T23:50:30.771Z,-23422.63
2022-12-28T23:52:33.876Z,-23423.72
2022-12-28T23:54:36.576Z,-23423.88
2022-12-28T23:56:40.679Z,-23423.41
2022-12-28T23:58:43.410Z,-23426.28
